sensor_id;sensor_type;location;lat;lon;timestamp;P1;durP1;ratioP1;P2;durP2;ratioP2
7365;SDS011;3723;52.220;8.792;2023-07-09T00:00:01;12.47;;;2.80;;
7365;SDS011;3723;52.220;8.792;2023-07-09T00:02:31;11.00;;;2.60;;
7365;SDS011;3723;52.220;8.792;2023-07-09T00:04:58;10.07;;;2.83;;
7365;SDS011;3723;52.220;8.792;2023-07-09T00:07:26;8.27;;;1.80;;
7365;SDS011;3723;52.220;8.792;2023-07-09T00:10:12;10.80;;;2.70;;
7365;SDS011;3723;52.220;8.792;2023-07-09T00:12:42;8.67;;;1.93;;
7365;SDS011;3723;52.220;8.792;2023-07-09T00:15:16;12.83;;;3.20;;
7365;SDS011;3723;52.220;8.792;2023-07-09T00:17:47;9.30;;;1.83;;
7365;SDS011;3723;52.220;8.792;2023-07-09T00:20:21;9.03;;;2.80;;
7365;SDS011;3723;52.220;8.792;2023-07-09T00:22:48;9.67;;;2.23;;
7365;SDS011;3723;52.220;8.792;2023-07-09T00:25:18;9.60;;;2.40;;
7365;SDS011;3723;52.220;8.792;2023-07-09T00:27:45;10.20;;;2.37;;
7365;SDS011;3723;52.220;8.792;2023-07-09T00:30:16;7.70;;;1.67;;
7365;SDS011;3723;52.220;8.792;2023-07-09T00:32:45;11.30;;;3.60;;
7365;SDS011;3723;52.220;8.792;2023-07-09T00:35:13;8.80;;;2.67;;
7365;SDS011;3723;52.220;8.792;2023-07-09T00:37:41;8.70;;;2.40;;
7365;SDS011;3723;52.220;8.792;2023-07-09T00:40:10;10.03;;;2.47;;
7365;SDS011;3723;52.220;8.792;2023-07-09T00:42:45;10.17;;;2.93;;
7365;SDS011;3723;52.220;8.792;2023-07-09T00:45:19;10.37;;;3.60;;
7365;SDS011;3723;52.220;8.792;2023-07-09T00:47:49;9.87;;;2.00;;
7365;SDS011;3723;52.220;8.792;2023-07-09T00:50:26;8.83;;;2.23;;
7365;SDS011;3723;52.220;8.792;2023-07-09T00:53:01;11.70;;;3.27;;
7365;SDS011;3723;52.220;8.792;2023-07-09T00:55:33;11.17;;;2.80;;
7365;SDS011;3723;52.220;8.792;2023-07-09T00:58:05;9.07;;;2.10;;
7365;SDS011;3723;52.220;8.792;2023-07-09T01:00:34;8.40;;;1.90;;
7365;SDS011;3723;52.220;8.792;2023-07-09T01:03:09;9.37;;;2.63;;
7365;SDS011;3723;52.220;8.792;2023-07-09T01:05:38;8.10;;;2.43;;
7365;SDS011;3723;52.220;8.792;2023-07-09T01:08:06;9.23;;;2.30;;
7365;SDS011;3723;52.220;8.792;2023-07-09T01:10:45;9.27;;;3.00;;
7365;SDS011;3723;52.220;8.792;2023-07-09T01:13:12;10.17;;;2.57;;
7365;SDS011;3723;52.220;8.792;2023-07-09T01:15:39;10.20;;;2.70;;
7365;SDS011;3723;52.220;8.792;2023-07-09T01:18:07;9.40;;;2.60;;
7365;SDS011;3723;52.220;8.792;2023-07-09T01:28:23;10.60;;;3.77;;
7365;SDS011;3723;52.220;8.792;2023-07-09T01:30:50;11.37;;;3.73;;
7365;SDS011;3723;52.220;8.792;2023-07-09T01:33:19;9.67;;;2.50;;
7365;SDS011;3723;52.220;8.792;2023-07-09T01:35:48;9.60;;;2.43;;
7365;SDS011;3723;52.220;8.792;2023-07-09T01:38:15;11.40;;;2.90;;
7365;SDS011;3723;52.220;8.792;2023-07-09T01:40:42;11.00;;;3.17;;
7365;SDS011;3723;52.220;8.792;2023-07-09T01:43:11;11.63;;;3.73;;
7365;SDS011;3723;52.220;8.792;2023-07-09T01:45:45;9.47;;;2.60;;
7365;SDS011;3723;52.220;8.792;2023-07-09T01:48:15;10.37;;;3.13;;
7365;SDS011;3723;52.220;8.792;2023-07-09T01:50:42;10.60;;;3.60;;
7365;SDS011;3723;52.220;8.792;2023-07-09T01:53:10;9.30;;;2.73;;
7365;SDS011;3723;52.220;8.792;2023-07-09T01:55:39;13.23;;;2.60;;
7365;SDS011;3723;52.220;8.792;2023-07-09T01:58:06;9.10;;;2.40;;
7365;SDS011;3723;52.220;8.792;2023-07-09T02:00:33;10.90;;;3.83;;
7365;SDS011;3723;52.220;8.792;2023-07-09T02:03:02;8.27;;;2.30;;
7365;SDS011;3723;52.220;8.792;2023-07-09T02:05:30;10.03;;;2.97;;
7365;SDS011;3723;52.220;8.792;2023-07-09T02:07:58;11.00;;;2.40;;
7365;SDS011;3723;52.220;8.792;2023-07-09T02:10:25;10.40;;;3.20;;
7365;SDS011;3723;52.220;8.792;2023-07-09T02:12:52;10.53;;;2.97;;
7365;SDS011;3723;52.220;8.792;2023-07-09T02:15:20;11.07;;;2.83;;
7365;SDS011;3723;52.220;8.792;2023-07-09T02:17:47;9.07;;;2.50;;
7365;SDS011;3723;52.220;8.792;2023-07-09T02:20:15;9.30;;;2.53;;
7365;SDS011;3723;52.220;8.792;2023-07-09T02:22:44;12.17;;;4.30;;
7365;SDS011;3723;52.220;8.792;2023-07-09T02:25:11;9.47;;;2.90;;
7365;SDS011;3723;52.220;8.792;2023-07-09T02:27:38;11.63;;;3.27;;
7365;SDS011;3723;52.220;8.792;2023-07-09T02:30:06;10.87;;;3.07;;
7365;SDS011;3723;52.220;8.792;2023-07-09T02:32:35;9.60;;;2.87;;
7365;SDS011;3723;52.220;8.792;2023-07-09T02:35:02;9.37;;;2.90;;
7365;SDS011;3723;52.220;8.792;2023-07-09T02:37:31;9.40;;;2.50;;
7365;SDS011;3723;52.220;8.792;2023-07-09T02:40:00;10.23;;;2.60;;
7365;SDS011;3723;52.220;8.792;2023-07-09T02:42:29;10.40;;;2.80;;
7365;SDS011;3723;52.220;8.792;2023-07-09T02:44:56;10.33;;;2.90;;
7365;SDS011;3723;52.220;8.792;2023-07-09T02:47:23;10.00;;;2.87;;
7365;SDS011;3723;52.220;8.792;2023-07-09T02:49:50;9.47;;;3.10;;
7365;SDS011;3723;52.220;8.792;2023-07-09T02:52:17;9.80;;;2.73;;
7365;SDS011;3723;52.220;8.792;2023-07-09T02:54:45;9.20;;;2.90;;
7365;SDS011;3723;52.220;8.792;2023-07-09T02:57:12;10.30;;;3.40;;
7365;SDS011;3723;52.220;8.792;2023-07-09T02:59:39;15.70;;;4.23;;
7365;SDS011;3723;52.220;8.792;2023-07-09T03:02:06;10.07;;;2.80;;
7365;SDS011;3723;52.220;8.792;2023-07-09T03:04:33;15.30;;;3.63;;
7365;SDS011;3723;52.220;8.792;2023-07-09T03:07:00;11.20;;;4.30;;
7365;SDS011;3723;52.220;8.792;2023-07-09T03:09:30;9.17;;;3.13;;
7365;SDS011;3723;52.220;8.792;2023-07-09T03:11:58;10.23;;;3.33;;
7365;SDS011;3723;52.220;8.792;2023-07-09T03:17:27;10.30;;;3.57;;
7365;SDS011;3723;52.220;8.792;2023-07-09T03:20:00;10.77;;;3.70;;
7365;SDS011;3723;52.220;8.792;2023-07-09T03:22:28;10.57;;;3.17;;
7365;SDS011;3723;52.220;8.792;2023-07-09T03:24:55;9.87;;;3.17;;
7365;SDS011;3723;52.220;8.792;2023-07-09T03:27:23;8.73;;;1.90;;
7365;SDS011;3723;52.220;8.792;2023-07-09T03:29:50;8.50;;;2.30;;
7365;SDS011;3723;52.220;8.792;2023-07-09T03:32:19;9.80;;;2.77;;
7365;SDS011;3723;52.220;8.792;2023-07-09T03:34:47;9.47;;;2.43;;
7365;SDS011;3723;52.220;8.792;2023-07-09T03:37:14;10.03;;;2.90;;
7365;SDS011;3723;52.220;8.792;2023-07-09T03:39:41;10.27;;;2.47;;
7365;SDS011;3723;52.220;8.792;2023-07-09T03:42:08;9.07;;;2.23;;
7365;SDS011;3723;52.220;8.792;2023-07-09T03:44:36;10.03;;;2.03;;
7365;SDS011;3723;52.220;8.792;2023-07-09T03:47:03;9.40;;;2.20;;
7365;SDS011;3723;52.220;8.792;2023-07-09T03:49:31;11.97;;;2.70;;
7365;SDS011;3723;52.220;8.792;2023-07-09T03:51:58;10.60;;;3.40;;
7365;SDS011;3723;52.220;8.792;2023-07-09T03:54:30;9.80;;;2.73;;
7365;SDS011;3723;52.220;8.792;2023-07-09T03:56:58;8.90;;;2.70;;
7365;SDS011;3723;52.220;8.792;2023-07-09T03:59:25;11.00;;;3.17;;
7365;SDS011;3723;52.220;8.792;2023-07-09T04:01:53;10.70;;;3.50;;
7365;SDS011;3723;52.220;8.792;2023-07-09T04:04:20;11.10;;;3.50;;
7365;SDS011;3723;52.220;8.792;2023-07-09T04:06:47;9.33;;;2.50;;
7365;SDS011;3723;52.220;8.792;2023-07-09T04:09:14;10.07;;;3.20;;
7365;SDS011;3723;52.220;8.792;2023-07-09T04:11:54;8.20;;;2.40;;
7365;SDS011;3723;52.220;8.792;2023-07-09T04:14:55;10.00;;;2.13;;
7365;SDS011;3723;52.220;8.792;2023-07-09T04:17:23;10.27;;;2.63;;
7365;SDS011;3723;52.220;8.792;2023-07-09T04:19:50;8.27;;;1.87;;
7365;SDS011;3723;52.220;8.792;2023-07-09T04:22:17;10.37;;;2.80;;
7365;SDS011;3723;52.220;8.792;2023-07-09T04:24:44;10.40;;;2.40;;
7365;SDS011;3723;52.220;8.792;2023-07-09T04:27:10;10.40;;;2.30;;
7365;SDS011;3723;52.220;8.792;2023-07-09T04:29:39;9.37;;;1.93;;
7365;SDS011;3723;52.220;8.792;2023-07-09T04:32:06;8.27;;;1.60;;
7365;SDS011;3723;52.220;8.792;2023-07-09T04:34:35;9.23;;;2.10;;
7365;SDS011;3723;52.220;8.792;2023-07-09T04:37:04;8.70;;;2.27;;
7365;SDS011;3723;52.220;8.792;2023-07-09T04:39:32;8.43;;;1.53;;
7365;SDS011;3723;52.220;8.792;2023-07-09T04:41:59;8.73;;;2.33;;
7365;SDS011;3723;52.220;8.792;2023-07-09T04:44:26;8.70;;;1.80;;
7365;SDS011;3723;52.220;8.792;2023-07-09T04:46:52;8.13;;;2.00;;
7365;SDS011;3723;52.220;8.792;2023-07-09T04:49:19;8.70;;;2.07;;
7365;SDS011;3723;52.220;8.792;2023-07-09T04:51:47;8.57;;;2.50;;
7365;SDS011;3723;52.220;8.792;2023-07-09T04:54:14;8.23;;;2.30;;
7365;SDS011;3723;52.220;8.792;2023-07-09T04:56:41;8.60;;;2.17;;
7365;SDS011;3723;52.220;8.792;2023-07-09T04:59:09;7.30;;;1.10;;
7365;SDS011;3723;52.220;8.792;2023-07-09T05:01:36;9.23;;;2.00;;
7365;SDS011;3723;52.220;8.792;2023-07-09T05:04:04;9.20;;;2.53;;
7365;SDS011;3723;52.220;8.792;2023-07-09T05:06:31;8.83;;;2.00;;
7365;SDS011;3723;52.220;8.792;2023-07-09T05:09:00;11.30;;;1.90;;
7365;SDS011;3723;52.220;8.792;2023-07-09T05:11:27;10.73;;;2.50;;
7365;SDS011;3723;52.220;8.792;2023-07-09T05:13:54;9.27;;;1.90;;
7365;SDS011;3723;52.220;8.792;2023-07-09T05:16:20;9.00;;;2.20;;
7365;SDS011;3723;52.220;8.792;2023-07-09T05:18:47;8.27;;;1.53;;
7365;SDS011;3723;52.220;8.792;2023-07-09T05:21:14;8.70;;;2.40;;
7365;SDS011;3723;52.220;8.792;2023-07-09T05:23:41;10.60;;;1.60;;
7365;SDS011;3723;52.220;8.792;2023-07-09T05:26:09;8.70;;;1.73;;
7365;SDS011;3723;52.220;8.792;2023-07-09T05:28:37;8.87;;;1.67;;
7365;SDS011;3723;52.220;8.792;2023-07-09T05:31:04;9.30;;;2.03;;
7365;SDS011;3723;52.220;8.792;2023-07-09T05:33:31;8.50;;;1.77;;
7365;SDS011;3723;52.220;8.792;2023-07-09T05:35:58;8.60;;;2.00;;
7365;SDS011;3723;52.220;8.792;2023-07-09T05:38:25;13.03;;;2.37;;
7365;SDS011;3723;52.220;8.792;2023-07-09T05:40:59;9.20;;;2.43;;
7365;SDS011;3723;52.220;8.792;2023-07-09T05:43:29;8.07;;;1.80;;
7365;SDS011;3723;52.220;8.792;2023-07-09T05:45:56;8.10;;;1.93;;
7365;SDS011;3723;52.220;8.792;2023-07-09T05:48:23;9.17;;;2.23;;
7365;SDS011;3723;52.220;8.792;2023-07-09T05:50:52;10.93;;;1.63;;
7365;SDS011;3723;52.220;8.792;2023-07-09T05:53:19;8.10;;;1.43;;
7365;SDS011;3723;52.220;8.792;2023-07-09T05:55:46;9.07;;;1.80;;
7365;SDS011;3723;52.220;8.792;2023-07-09T05:58:13;9.90;;;3.10;;
7365;SDS011;3723;52.220;8.792;2023-07-09T06:00:41;7.90;;;1.40;;
7365;SDS011;3723;52.220;8.792;2023-07-09T06:03:08;8.00;;;1.43;;
7365;SDS011;3723;52.220;8.792;2023-07-09T06:05:35;8.83;;;1.50;;
7365;SDS011;3723;52.220;8.792;2023-07-09T06:08:03;9.27;;;1.60;;
7365;SDS011;3723;52.220;8.792;2023-07-09T06:10:30;8.17;;;1.70;;
7365;SDS011;3723;52.220;8.792;2023-07-09T06:12:57;8.70;;;1.67;;
7365;SDS011;3723;52.220;8.792;2023-07-09T06:15:24;8.80;;;2.13;;
7365;SDS011;3723;52.220;8.792;2023-07-09T06:17:52;8.97;;;1.93;;
7365;SDS011;3723;52.220;8.792;2023-07-09T06:20:19;9.17;;;1.80;;
7365;SDS011;3723;52.220;8.792;2023-07-09T06:22:46;10.67;;;1.90;;
7365;SDS011;3723;52.220;8.792;2023-07-09T06:25:13;9.10;;;1.90;;
7365;SDS011;3723;52.220;8.792;2023-07-09T06:27:39;8.47;;;2.10;;
7365;SDS011;3723;52.220;8.792;2023-07-09T06:30:07;11.80;;;1.77;;
7365;SDS011;3723;52.220;8.792;2023-07-09T06:32:34;10.80;;;1.90;;
7365;SDS011;3723;52.220;8.792;2023-07-09T06:35:02;7.93;;;1.30;;
7365;SDS011;3723;52.220;8.792;2023-07-09T06:37:29;8.40;;;1.80;;
7365;SDS011;3723;52.220;8.792;2023-07-09T06:39:56;10.87;;;2.83;;
7365;SDS011;3723;52.220;8.792;2023-07-09T06:42:23;9.73;;;1.60;;
7365;SDS011;3723;52.220;8.792;2023-07-09T06:44:50;8.00;;;1.60;;
7365;SDS011;3723;52.220;8.792;2023-07-09T06:47:17;8.73;;;1.80;;
7365;SDS011;3723;52.220;8.792;2023-07-09T06:49:43;9.67;;;2.60;;
7365;SDS011;3723;52.220;8.792;2023-07-09T06:52:12;8.57;;;1.73;;
7365;SDS011;3723;52.220;8.792;2023-07-09T06:54:38;7.90;;;1.50;;
7365;SDS011;3723;52.220;8.792;2023-07-09T06:57:05;9.93;;;1.83;;
7365;SDS011;3723;52.220;8.792;2023-07-09T06:59:32;11.10;;;2.17;;
7365;SDS011;3723;52.220;8.792;2023-07-09T07:01:59;9.03;;;2.23;;
7365;SDS011;3723;52.220;8.792;2023-07-09T07:04:26;9.00;;;1.70;;
7365;SDS011;3723;52.220;8.792;2023-07-09T07:06:54;9.77;;;1.50;;
7365;SDS011;3723;52.220;8.792;2023-07-09T07:09:26;7.97;;;1.53;;
7365;SDS011;3723;52.220;8.792;2023-07-09T07:11:57;9.10;;;2.13;;
7365;SDS011;3723;52.220;8.792;2023-07-09T07:14:23;8.17;;;2.03;;
7365;SDS011;3723;52.220;8.792;2023-07-09T07:16:50;8.10;;;1.57;;
7365;SDS011;3723;52.220;8.792;2023-07-09T07:19:19;8.93;;;1.50;;
7365;SDS011;3723;52.220;8.792;2023-07-09T07:21:45;8.63;;;1.37;;
7365;SDS011;3723;52.220;8.792;2023-07-09T07:24:12;8.80;;;1.70;;
7365;SDS011;3723;52.220;8.792;2023-07-09T07:26:40;8.47;;;1.60;;
7365;SDS011;3723;52.220;8.792;2023-07-09T07:29:07;7.67;;;1.40;;
7365;SDS011;3723;52.220;8.792;2023-07-09T07:31:34;8.77;;;1.47;;
7365;SDS011;3723;52.220;8.792;2023-07-09T07:34:01;8.67;;;1.60;;
7365;SDS011;3723;52.220;8.792;2023-07-09T07:36:27;8.10;;;1.70;;
7365;SDS011;3723;52.220;8.792;2023-07-09T07:38:54;8.07;;;1.40;;
7365;SDS011;3723;52.220;8.792;2023-07-09T07:41:21;7.63;;;1.50;;
7365;SDS011;3723;52.220;8.792;2023-07-09T07:43:49;8.30;;;1.57;;
7365;SDS011;3723;52.220;8.792;2023-07-09T07:46:16;9.80;;;2.00;;
7365;SDS011;3723;52.220;8.792;2023-07-09T07:48:43;8.30;;;1.10;;
7365;SDS011;3723;52.220;8.792;2023-07-09T07:51:10;7.97;;;1.57;;
7365;SDS011;3723;52.220;8.792;2023-07-09T07:53:38;8.80;;;1.40;;
7365;SDS011;3723;52.220;8.792;2023-07-09T07:56:05;8.37;;;1.83;;
7365;SDS011;3723;52.220;8.792;2023-07-09T07:58:32;7.60;;;1.33;;
7365;SDS011;3723;52.220;8.792;2023-07-09T08:01:01;9.37;;;2.30;;
7365;SDS011;3723;52.220;8.792;2023-07-09T08:03:28;8.03;;;2.03;;
7365;SDS011;3723;52.220;8.792;2023-07-09T08:05:55;8.13;;;1.60;;
7365;SDS011;3723;52.220;8.792;2023-07-09T08:08:31;8.67;;;1.67;;
7365;SDS011;3723;52.220;8.792;2023-07-09T08:11:00;8.03;;;1.53;;
7365;SDS011;3723;52.220;8.792;2023-07-09T08:13:30;7.60;;;1.40;;
7365;SDS011;3723;52.220;8.792;2023-07-09T08:15:57;8.20;;;1.70;;
7365;SDS011;3723;52.220;8.792;2023-07-09T08:18:25;9.10;;;1.63;;
7365;SDS011;3723;52.220;8.792;2023-07-09T08:20:52;8.07;;;1.80;;
7365;SDS011;3723;52.220;8.792;2023-07-09T08:23:19;8.80;;;1.60;;
7365;SDS011;3723;52.220;8.792;2023-07-09T08:25:51;8.33;;;1.73;;
7365;SDS011;3723;52.220;8.792;2023-07-09T08:28:19;7.63;;;1.47;;
7365;SDS011;3723;52.220;8.792;2023-07-09T08:30:46;7.63;;;1.40;;
7365;SDS011;3723;52.220;8.792;2023-07-09T08:33:13;8.00;;;1.70;;
7365;SDS011;3723;52.220;8.792;2023-07-09T08:35:43;8.47;;;1.70;;
7365;SDS011;3723;52.220;8.792;2023-07-09T08:38:09;8.80;;;1.60;;
7365;SDS011;3723;52.220;8.792;2023-07-09T08:40:38;8.50;;;1.93;;
7365;SDS011;3723;52.220;8.792;2023-07-09T08:43:17;8.10;;;1.30;;
7365;SDS011;3723;52.220;8.792;2023-07-09T08:45:55;8.30;;;1.17;;
7365;SDS011;3723;52.220;8.792;2023-07-09T08:48:29;8.53;;;1.97;;
7365;SDS011;3723;52.220;8.792;2023-07-09T08:50:59;6.90;;;1.00;;
7365;SDS011;3723;52.220;8.792;2023-07-09T08:53:32;9.33;;;1.70;;
7365;SDS011;3723;52.220;8.792;2023-07-09T08:56:06;9.33;;;1.60;;
7365;SDS011;3723;52.220;8.792;2023-07-09T08:58:35;7.70;;;1.73;;
7365;SDS011;3723;52.220;8.792;2023-07-09T09:01:05;9.80;;;1.58;;
7365;SDS011;3723;52.220;8.792;2023-07-09T09:03:40;7.53;;;1.42;;
7365;SDS011;3723;52.220;8.792;2023-07-09T09:06:12;9.10;;;2.10;;
7365;SDS011;3723;52.220;8.792;2023-07-09T09:08:42;8.97;;;1.73;;
7365;SDS011;3723;52.220;8.792;2023-07-09T09:11:15;7.70;;;1.50;;
7365;SDS011;3723;52.220;8.792;2023-07-09T09:13:47;9.77;;;2.03;;
7365;SDS011;3723;52.220;8.792;2023-07-09T09:16:19;7.90;;;1.77;;
7365;SDS011;3723;52.220;8.792;2023-07-09T09:18:50;7.90;;;1.33;;
7365;SDS011;3723;52.220;8.792;2023-07-09T09:21:22;9.10;;;1.50;;
7365;SDS011;3723;52.220;8.792;2023-07-09T09:23:54;8.87;;;2.30;;
7365;SDS011;3723;52.220;8.792;2023-07-09T09:26:25;8.40;;;1.73;;
7365;SDS011;3723;52.220;8.792;2023-07-09T09:28:56;8.43;;;1.77;;
7365;SDS011;3723;52.220;8.792;2023-07-09T09:31:24;8.13;;;2.00;;
7365;SDS011;3723;52.220;8.792;2023-07-09T09:33:52;7.90;;;2.00;;
7365;SDS011;3723;52.220;8.792;2023-07-09T09:36:27;13.60;;;2.33;;
7365;SDS011;3723;52.220;8.792;2023-07-09T09:38:55;8.25;;;2.08;;
7365;SDS011;3723;52.220;8.792;2023-07-09T09:41:23;9.10;;;1.63;;
7365;SDS011;3723;52.220;8.792;2023-07-09T09:43:52;8.07;;;1.88;;
7365;SDS011;3723;52.220;8.792;2023-07-09T09:46:20;8.77;;;1.48;;
7365;SDS011;3723;52.220;8.792;2023-07-09T09:48:50;7.90;;;1.52;;
7365;SDS011;3723;52.220;8.792;2023-07-09T09:51:19;9.85;;;2.45;;
7365;SDS011;3723;52.220;8.792;2023-07-09T09:53:49;7.72;;;1.33;;
7365;SDS011;3723;52.220;8.792;2023-07-09T09:56:20;8.48;;;1.75;;
7365;SDS011;3723;52.220;8.792;2023-07-09T09:58:52;8.70;;;1.90;;
7365;SDS011;3723;52.220;8.792;2023-07-09T10:01:22;8.52;;;1.95;;
7365;SDS011;3723;52.220;8.792;2023-07-09T10:03:56;10.48;;;2.13;;
7365;SDS011;3723;52.220;8.792;2023-07-09T10:06:29;9.70;;;1.52;;
7365;SDS011;3723;52.220;8.792;2023-07-09T10:09:04;8.20;;;1.42;;
7365;SDS011;3723;52.220;8.792;2023-07-09T10:11:44;8.32;;;1.80;;
7365;SDS011;3723;52.220;8.792;2023-07-09T10:14:18;9.80;;;1.55;;
7365;SDS011;3723;52.220;8.792;2023-07-09T10:16:59;8.65;;;2.00;;
7365;SDS011;3723;52.220;8.792;2023-07-09T10:19:35;8.35;;;2.15;;
7365;SDS011;3723;52.220;8.792;2023-07-09T10:22:11;8.68;;;1.88;;
7365;SDS011;3723;52.220;8.792;2023-07-09T10:24:47;10.20;;;2.10;;
7365;SDS011;3723;52.220;8.792;2023-07-09T10:27:25;7.68;;;1.65;;
7365;SDS011;3723;52.220;8.792;2023-07-09T10:30:21;7.68;;;1.45;;
7365;SDS011;3723;52.220;8.792;2023-07-09T10:33:06;9.10;;;1.80;;
7365;SDS011;3723;52.220;8.792;2023-07-09T10:35:43;10.25;;;1.70;;
7365;SDS011;3723;52.220;8.792;2023-07-09T10:38:26;8.52;;;1.67;;
7365;SDS011;3723;52.220;8.792;2023-07-09T10:41:10;7.93;;;1.50;;
7365;SDS011;3723;52.220;8.792;2023-07-09T10:43:46;8.02;;;2.20;;
7365;SDS011;3723;52.220;8.792;2023-07-09T10:46:22;12.10;;;2.28;;
7365;SDS011;3723;52.220;8.792;2023-07-09T10:48:52;7.85;;;1.75;;
7365;SDS011;3723;52.220;8.792;2023-07-09T10:51:22;9.13;;;2.13;;
7365;SDS011;3723;52.220;8.792;2023-07-09T10:53:54;8.57;;;1.63;;
7365;SDS011;3723;52.220;8.792;2023-07-09T10:56:27;8.10;;;1.40;;
7365;SDS011;3723;52.220;8.792;2023-07-09T10:59:05;8.47;;;1.50;;
7365;SDS011;3723;52.220;8.792;2023-07-09T11:01:55;10.43;;;1.50;;
7365;SDS011;3723;52.220;8.792;2023-07-09T11:04:26;7.70;;;1.30;;
7365;SDS011;3723;52.220;8.792;2023-07-09T11:06:58;8.45;;;1.90;;
7365;SDS011;3723;52.220;8.792;2023-07-09T11:09:30;8.40;;;1.92;;
7365;SDS011;3723;52.220;8.792;2023-07-09T11:12:01;8.63;;;1.90;;
7365;SDS011;3723;52.220;8.792;2023-07-09T11:14:39;8.95;;;1.65;;
7365;SDS011;3723;52.220;8.792;2023-07-09T11:17:13;8.07;;;1.50;;
7365;SDS011;3723;52.220;8.792;2023-07-09T11:19:42;8.70;;;1.85;;
7365;SDS011;3723;52.220;8.792;2023-07-09T11:22:15;8.20;;;1.67;;
7365;SDS011;3723;52.220;8.792;2023-07-09T11:24:47;8.70;;;2.30;;
7365;SDS011;3723;52.220;8.792;2023-07-09T11:27:18;8.18;;;1.63;;
7365;SDS011;3723;52.220;8.792;2023-07-09T11:29:48;11.15;;;1.55;;
7365;SDS011;3723;52.220;8.792;2023-07-09T11:32:22;7.75;;;1.35;;
7365;SDS011;3723;52.220;8.792;2023-07-09T11:34:51;7.70;;;1.30;;
7365;SDS011;3723;52.220;8.792;2023-07-09T11:37:24;10.30;;;1.90;;
7365;SDS011;3723;52.220;8.792;2023-07-09T11:39:52;9.57;;;1.88;;
7365;SDS011;3723;52.220;8.792;2023-07-09T11:42:29;8.18;;;1.60;;
7365;SDS011;3723;52.220;8.792;2023-07-09T11:45:00;8.20;;;1.58;;
7365;SDS011;3723;52.220;8.792;2023-07-09T11:47:33;10.63;;;1.73;;
7365;SDS011;3723;52.220;8.792;2023-07-09T11:50:03;8.38;;;1.70;;
7365;SDS011;3723;52.220;8.792;2023-07-09T11:52:37;8.90;;;1.70;;
7365;SDS011;3723;52.220;8.792;2023-07-09T11:55:19;10.93;;;1.75;;
7365;SDS011;3723;52.220;8.792;2023-07-09T11:57:53;13.45;;;2.05;;
7365;SDS011;3723;52.220;8.792;2023-07-09T12:00:21;8.82;;;2.00;;
7365;SDS011;3723;52.220;8.792;2023-07-09T12:02:48;8.80;;;1.60;;
7365;SDS011;3723;52.220;8.792;2023-07-09T12:05:18;7.78;;;1.77;;
7365;SDS011;3723;52.220;8.792;2023-07-09T12:07:48;8.32;;;1.90;;
7365;SDS011;3723;52.220;8.792;2023-07-09T12:10:19;8.13;;;1.52;;
7365;SDS011;3723;52.220;8.792;2023-07-09T12:12:53;9.95;;;2.50;;
7365;SDS011;3723;52.220;8.792;2023-07-09T12:15:28;8.02;;;1.48;;
7365;SDS011;3723;52.220;8.792;2023-07-09T12:17:59;9.77;;;2.20;;
7365;SDS011;3723;52.220;8.792;2023-07-09T12:20:29;7.32;;;1.30;;
7365;SDS011;3723;52.220;8.792;2023-07-09T12:22:57;8.20;;;1.75;;
7365;SDS011;3723;52.220;8.792;2023-07-09T12:25:25;8.55;;;1.58;;
7365;SDS011;3723;52.220;8.792;2023-07-09T12:27:57;7.22;;;1.23;;
7365;SDS011;3723;52.220;8.792;2023-07-09T12:30:27;7.82;;;1.52;;
7365;SDS011;3723;52.220;8.792;2023-07-09T12:32:59;8.90;;;2.08;;
7365;SDS011;3723;52.220;8.792;2023-07-09T12:35:25;8.25;;;1.75;;
7365;SDS011;3723;52.220;8.792;2023-07-09T12:37:55;8.98;;;1.88;;
7365;SDS011;3723;52.220;8.792;2023-07-09T12:40:23;9.20;;;2.25;;
7365;SDS011;3723;52.220;8.792;2023-07-09T12:42:56;7.82;;;1.35;;
7365;SDS011;3723;52.220;8.792;2023-07-09T12:45:24;8.05;;;1.65;;
7365;SDS011;3723;52.220;8.792;2023-07-09T12:47:51;8.55;;;1.50;;
7365;SDS011;3723;52.220;8.792;2023-07-09T12:50:21;11.07;;;2.30;;
7365;SDS011;3723;52.220;8.792;2023-07-09T12:52:55;9.38;;;1.88;;
7365;SDS011;3723;52.220;8.792;2023-07-09T12:55:24;8.77;;;1.75;;
7365;SDS011;3723;52.220;8.792;2023-07-09T12:57:54;7.40;;;1.40;;
7365;SDS011;3723;52.220;8.792;2023-07-09T13:00:25;8.13;;;1.60;;
7365;SDS011;3723;52.220;8.792;2023-07-09T13:02:57;7.88;;;1.80;;
7365;SDS011;3723;52.220;8.792;2023-07-09T13:05:25;9.10;;;2.13;;
7365;SDS011;3723;52.220;8.792;2023-07-09T13:07:53;7.95;;;1.50;;
7365;SDS011;3723;52.220;8.792;2023-07-09T13:10:24;8.52;;;2.22;;
7365;SDS011;3723;52.220;8.792;2023-07-09T13:12:53;9.30;;;2.17;;
7365;SDS011;3723;52.220;8.792;2023-07-09T13:15:23;11.43;;;2.20;;
7365;SDS011;3723;52.220;8.792;2023-07-09T13:17:59;7.80;;;1.30;;
7365;SDS011;3723;52.220;8.792;2023-07-09T13:20:28;9.45;;;2.08;;
7365;SDS011;3723;52.220;8.792;2023-07-09T13:23:00;9.25;;;1.83;;
7365;SDS011;3723;52.220;8.792;2023-07-09T13:25:27;10.13;;;1.88;;
7365;SDS011;3723;52.220;8.792;2023-07-09T13:27:54;11.77;;;1.63;;
7365;SDS011;3723;52.220;8.792;2023-07-09T13:30:20;8.38;;;1.67;;
7365;SDS011;3723;52.220;8.792;2023-07-09T13:32:49;8.35;;;1.52;;
7365;SDS011;3723;52.220;8.792;2023-07-09T13:35:16;7.38;;;1.60;;
7365;SDS011;3723;52.220;8.792;2023-07-09T13:37:44;10.75;;;1.73;;
7365;SDS011;3723;52.220;8.792;2023-07-09T13:40:12;9.05;;;1.77;;
7365;SDS011;3723;52.220;8.792;2023-07-09T13:42:41;11.07;;;1.50;;
7365;SDS011;3723;52.220;8.792;2023-07-09T13:45:15;10.05;;;2.28;;
7365;SDS011;3723;52.220;8.792;2023-07-09T13:47:49;9.48;;;1.65;;
7365;SDS011;3723;52.220;8.792;2023-07-09T13:50:16;9.48;;;1.58;;
7365;SDS011;3723;52.220;8.792;2023-07-09T13:52:43;7.47;;;1.50;;
7365;SDS011;3723;52.220;8.792;2023-07-09T13:55:15;9.13;;;2.13;;
7365;SDS011;3723;52.220;8.792;2023-07-09T13:57:44;11.88;;;2.08;;
7365;SDS011;3723;52.220;8.792;2023-07-09T14:00:11;8.77;;;1.80;;
7365;SDS011;3723;52.220;8.792;2023-07-09T14:02:39;8.98;;;2.20;;
7365;SDS011;3723;52.220;8.792;2023-07-09T14:05:08;8.73;;;1.92;;
7365;SDS011;3723;52.220;8.792;2023-07-09T14:07:40;11.70;;;2.10;;
7365;SDS011;3723;52.220;8.792;2023-07-09T14:10:17;8.02;;;1.50;;
7365;SDS011;3723;52.220;8.792;2023-07-09T14:12:44;7.70;;;1.40;;
7365;SDS011;3723;52.220;8.792;2023-07-09T14:15:14;7.70;;;1.35;;
7365;SDS011;3723;52.220;8.792;2023-07-09T14:17:43;7.40;;;1.23;;
7365;SDS011;3723;52.220;8.792;2023-07-09T14:20:12;9.30;;;1.65;;
7365;SDS011;3723;52.220;8.792;2023-07-09T14:22:40;12.00;;;1.77;;
7365;SDS011;3723;52.220;8.792;2023-07-09T14:25:14;8.68;;;1.60;;
7365;SDS011;3723;52.220;8.792;2023-07-09T14:27:43;9.02;;;2.30;;
7365;SDS011;3723;52.220;8.792;2023-07-09T14:30:13;8.25;;;1.85;;
7365;SDS011;3723;52.220;8.792;2023-07-09T14:32:41;11.35;;;2.72;;
7365;SDS011;3723;52.220;8.792;2023-07-09T14:35:12;9.70;;;2.20;;
7365;SDS011;3723;52.220;8.792;2023-07-09T14:37:41;8.35;;;1.77;;
7365;SDS011;3723;52.220;8.792;2023-07-09T14:40:08;9.10;;;2.08;;
7365;SDS011;3723;52.220;8.792;2023-07-09T14:42:36;8.75;;;1.55;;
7365;SDS011;3723;52.220;8.792;2023-07-09T14:45:04;10.25;;;1.65;;
7365;SDS011;3723;52.220;8.792;2023-07-09T14:47:32;8.05;;;1.75;;
7365;SDS011;3723;52.220;8.792;2023-07-09T14:50:00;8.18;;;1.95;;
7365;SDS011;3723;52.220;8.792;2023-07-09T14:52:29;12.55;;;1.80;;
7365;SDS011;3723;52.220;8.792;2023-07-09T14:54:59;8.45;;;1.88;;
7365;SDS011;3723;52.220;8.792;2023-07-09T14:57:26;8.27;;;2.22;;
7365;SDS011;3723;52.220;8.792;2023-07-09T14:59:55;7.93;;;1.60;;
7365;SDS011;3723;52.220;8.792;2023-07-09T15:02:25;12.52;;;1.73;;
7365;SDS011;3723;52.220;8.792;2023-07-09T15:05:00;8.40;;;1.40;;
7365;SDS011;3723;52.220;8.792;2023-07-09T15:07:27;11.70;;;2.47;;
7365;SDS011;3723;52.220;8.792;2023-07-09T15:09:56;8.50;;;1.58;;
7365;SDS011;3723;52.220;8.792;2023-07-09T15:12:25;7.82;;;1.42;;
7365;SDS011;3723;52.220;8.792;2023-07-09T15:14:56;8.75;;;2.28;;
7365;SDS011;3723;52.220;8.792;2023-07-09T15:17:30;11.10;;;2.50;;
7365;SDS011;3723;52.220;8.792;2023-07-09T15:19:56;8.98;;;1.52;;
7365;SDS011;3723;52.220;8.792;2023-07-09T15:22:27;8.85;;;1.48;;
7365;SDS011;3723;52.220;8.792;2023-07-09T15:24:57;8.32;;;1.70;;
7365;SDS011;3723;52.220;8.792;2023-07-09T15:27:24;12.23;;;2.83;;
7365;SDS011;3723;52.220;8.792;2023-07-09T15:29:52;8.70;;;1.20;;
7365;SDS011;3723;52.220;8.792;2023-07-09T15:32:19;11.00;;;2.13;;
7365;SDS011;3723;52.220;8.792;2023-07-09T15:34:46;8.80;;;1.53;;
7365;SDS011;3723;52.220;8.792;2023-07-09T15:37:14;9.90;;;2.30;;